Главная страница
METAR-TAF:

METAR-TAF

Аэропорты :

Ресифи, Пернамбуку, Бразилия

широта: 08-08S, долгота: 034-55W, высота над уровнем моря: 19 м

Текущие метеонаблюдения

Эта сводка был подготовлена 18 минут назад, в 23:00 UTC
Ветер 11 Узел от юго-юго-восточный
Температура 25°C
Влажность 74%
Давление 1017 hPa
Видимость 10 км и более
небольшая облачность на высоте 2000 фута

METAR: SBRF 152300Z 16011KT 9999 FEW020 25/20 Q1017

Время: 20:18 (23:18 UTC)

Прогноз

Эта сводка был подготовлена 8 часа и 18 минут назад, в 15:00 UTC
Прогноз действительный с 15-го 18 UTC до 16-го 18 UTC
Ветер 11 Узел от юго-юго-восточный
Видимость 10 км и более
Отдельные облака на высоте 2300 фута
изменения
С 16-го 01 UTC до 16-го 03 UTC
Ветер 4 Узел от южный-юго-западный
изменения
С 16-го 12 UTC до 16-го 14 UTC
Ветер 12 Узел от юго-юго-восточный

TAF: SBRF 151500Z 1518/1618 16011KT 9999 SCT023 TN20/1608Z TX28/1615Z BECMG 1601/1603 20004KT BECMG 1612/1614 16012KT RMK PEA

Метеонаблюдения и прогнозы для более 4000 аэропортов (сводки METAR и TAF).

Имеющиеся станции представлены на карте желтыми и красными точками.

Чтобы увидеть название станции, наведите на нее мышь.

Затем щелкните, чтобы увидеть метеонаблюдения и метеопрогнозы.

Управление картой: чтобы увеличить масштаб, щелкните зеленые кнопки с черным крестиком; чтобы уменьшить масштаб, щелкните зеленую кнопку с тире; для просмотра соседних карт щелкайте зеленые стрелки.


METAR-TAF: